My Profile
  1. Member Settings
  2. My Devices
  3. Sign Out
        More Settings
      Elev 604 ft, 34.276 °N 93.442 °W

      Amity, AR

      Summary

      Temperature (°F)MaxAverageMin
      Max Temperature10387.973
      Avg Temperature86.873.6366.65
      Min Temperature7663.3253
      Precipitation (in)MaxAverageMinSum
      Precipitation0.580.0702.08
      Dew Point (°F)MaxAverageMin
      Dew Point70.2561.4752.39
      Wind (mph)MaxAverageMin
      Wind126.10
      Gust Wind252016
      Sea Level Pressure (in)MaxAverageMin
      Sea Level Pressure29.3429.2529.11

      Daily Observations

      DateTemp High/LowDew Pt High/LowHumidityWindMax WindWind GustPressurePrecip.Condition
      9/1/2023 91 °F / 56 °F 59 °F / 47 °F 56 % 7 mph - 29.3 in 0 in
      9/2/2023 91 °F / 65 °F 66 °F / 59 °F 63 % 7 mph - 29.31 in 0 in
      9/3/2023 96 °F / 67 °F 72 °F / 62 °F 66 % 9 mph - 29.24 in 0 in
      9/4/2023 95 °F / 69 °F 71 °F / 64 °F 73 % 12 mph - 29.14 in 0.06 in
      9/5/2023 93 °F / 71 °F 73 °F / 67 °F 70 % 8 mph - 29.17 in 0 in
      9/6/2023 103 °F / 70 °F 72 °F / 46 °F 53 % 8 mph - 29.18 in 0 in
      9/7/2023 93 °F / 62 °F 62 °F / 56 °F 63 % 6 mph - 29.21 in 0 in
      9/8/2023 79 °F / 68 °F 72 °F / 66 °F 87 % 6 mph - 29.24 in 0.58 in
      9/9/2023 90 °F / 63 °F 67 °F / 51 °F 75 % 7 mph - 29.3 in 0 in
      9/10/2023 87 °F / 56 °F 61 °F / 54 °F 68 % 5 mph - 29.34 in 0 in
      9/11/2023 83 °F / 58 °F 66 °F / 56 °F 73 % 3 mph - 29.29 in 0 in
      9/12/2023 73 °F / 67 °F 67 °F / 64 °F 87 % 5 mph - 29.29 in 0.33 in
      9/13/2023 80 °F / 64 °F 65 °F / 59 °F 84 % 6 mph - 29.28 in 0 in
      9/14/2023 79 °F / 58 °F 64 °F / 50 °F 67 % 6 mph - 29.28 in 0 in
      9/15/2023 85 °F / 53 °F 57 °F / 48 °F 65 % 7 mph - 29.29 in 0 in
      9/16/2023 88 °F / 57 °F 58 °F / 48 °F 57 % 6 mph - 29.27 in 0 in
      9/17/2023 88 °F / 58 °F 58 °F / 53 °F 62 % 7 mph - 29.27 in 0 in
      9/18/2023 88 °F / 55 °F 57 °F / 52 °F 60 % 3 mph - 29.26 in 0 in
      9/19/2023 86 °F / 57 °F 65 °F / 52 °F 67 % 6 mph - 29.2 in 0.07 in
      9/20/2023 82 °F / 64 °F 64 °F / 51 °F 73 % 8 mph - 29.19 in 0.18 in
      9/21/2023 89 °F / 65 °F 69 °F / 63 °F 78 % 5 mph - 29.27 in 0 in
      9/22/2023 74 °F / 66 °F 68 °F / 64 °F 89 % 5 mph - 29.28 in 0.38 in
      9/23/2023 90 °F / 63 °F 73 °F / 61 °F 85 % 8 mph - 29.18 in 0.03 in
      9/24/2023 85 °F / 70 °F 73 °F / 67 °F 85 % 3 mph - 29.13 in 0.45 in
      9/25/2023 90 °F / 70 °F 72 °F / 63 °F 78 % 5 mph - 29.26 in 0 in
      9/26/2023 91 °F / 64 °F 66 °F / 53 °F 66 % 5 mph - 29.28 in 0 in
      9/27/2023 92 °F / 60 °F 64 °F / 57 °F 68 % 6 mph - 29.24 in 0 in
      9/28/2023 92 °F / 61 °F 66 °F / 56 °F 68 % 6 mph - 29.23 in 0 in
      9/29/2023 93 °F / 62 °F 66 °F / 52 °F 65 % 8 mph - 29.26 in 0 in
      9/30/2023 94 °F / 59 °F 65 °F / 50 °F 63 % 6 mph - 29.33 in 0 in
      essentialaccessibility.com
      We recognize our responsibility to use data and technology for good. We may use or share your data with our data vendors. Take control of your data.
      Glossary